createdAt,value
2018-10-19T00:00:07.948Z,95364.67
2018-10-19T00:02:33.474Z,95369.79
2018-10-19T00:04:58.993Z,95367.82
2018-10-19T00:07:24.435Z,95366.85
2018-10-19T00:09:49.904Z,95365.89
2018-10-19T00:12:15.444Z,95364.67
2018-10-19T00:14:40.940Z,95367.82
2018-10-19T00:17:06.503Z,95363.30
2018-10-19T00:19:31.910Z,95367.41
2018-10-19T00:21:57.384Z,95357.80
2018-10-19T00:24:22.879Z,95360.17
2018-10-19T00:26:48.380Z,95359.36
2018-10-19T00:29:13.888Z,95362.11
2018-10-19T00:31:39.395Z,95359.77
2018-10-19T00:34:04.896Z,95358.80
2018-10-19T00:36:30.393Z,95362.33
2018-10-19T00:38:55.878Z,95357.42
2018-10-19T00:41:21.336Z,95358.39
2018-10-19T00:43:46.807Z,95358.95
2018-10-19T00:46:12.280Z,95357.98
2018-10-19T00:48:37.752Z,95351.13
2018-10-19T00:51:03.335Z,95350.72
2018-10-19T00:53:28.725Z,95351.69
2018-10-19T00:55:54.214Z,95351.69
2018-10-19T00:58:19.709Z,95345.00
2018-10-19T01:00:45.180Z,95347.97
2018-10-19T01:03:10.725Z,95349.75
2018-10-19T01:05:36.147Z,95345.22
2018-10-19T01:08:01.642Z,95341.26
2018-10-19T01:10:27.113Z,95335.39
2018-10-19T01:12:52.616Z,95336.77
2018-10-19T01:15:18.168Z,95339.52
2018-10-19T01:17:43.607Z,95340.48
2018-10-19T01:20:09.108Z,95339.11
2018-10-19T01:22:34.599Z,95330.05
2018-10-19T01:25:00.074Z,95324.97
2018-10-19T01:27:25.550Z,95324.16
2018-10-19T01:29:51.048Z,95321.81
2018-10-19T01:32:16.519Z,95322.22
2018-10-19T01:34:42.013Z,95315.76
2018-10-19T01:37:07.496Z,95319.07
2018-10-19T01:39:32.984Z,95321.41
2018-10-19T01:41:58.453Z,95321.41
2018-10-19T01:44:23.920Z,95326.91
2018-10-19T01:46:49.416Z,95322.38
2018-10-19T01:49:14.893Z,95317.30
2018-10-19T01:51:40.385Z,95321.00
2018-10-19T01:54:05.861Z,95322.78
2018-10-19T01:56:31.362Z,95320.60
2018-10-19T01:58:56.853Z,95322.97
2018-10-19T02:01:22.313Z,95328.84
2018-10-19T02:03:47.784Z,95327.88
2018-10-19T02:06:13.264Z,95329.43
2018-10-19T02:08:38.759Z,95328.84
2018-10-19T02:11:04.278Z,95331.59
2018-10-19T02:13:29.745Z,95333.95
2018-10-19T02:15:55.239Z,95328.06
2018-10-19T02:18:20.709Z,95326.69
2018-10-19T02:20:46.209Z,95329.84
2018-10-19T02:23:11.783Z,95336.05
2018-10-19T02:25:37.168Z,95328.63
2018-10-19T02:28:02.637Z,95332.34
2018-10-19T02:30:28.133Z,95328.22
2018-10-19T02:32:53.628Z,95327.41
2018-10-19T02:35:19.290Z,95335.89
2018-10-19T02:37:44.632Z,95336.86
2018-10-19T02:40:10.103Z,95337.42
2018-10-19T02:42:35.601Z,95340.58
2018-10-19T02:45:01.115Z,95335.08
2018-10-19T02:47:26.567Z,95335.08
2018-10-19T02:49:52.067Z,95335.64
2018-10-19T02:52:17.563Z,95335.08
2018-10-19T02:54:43.059Z,95334.67
2018-10-19T02:57:08.655Z,95337.02
2018-10-19T02:59:34.029Z,95333.90
2018-10-19T03:01:59.498Z,95331.15
2018-10-19T03:04:24.999Z,95329.78
2018-10-19T03:06:50.477Z,95336.64
2018-10-19T03:09:15.976Z,95339.39
2018-10-19T03:11:41.506Z,95333.49
2018-10-19T03:14:06.912Z,95332.68
2018-10-19T03:16:32.415Z,95337.61
2018-10-19T03:18:57.921Z,95338.58
2018-10-19T03:21:23.392Z,95338.17
2018-10-19T03:23:48.860Z,95342.70
2018-10-19T03:26:14.332Z,95340.17
2018-10-19T03:28:39.831Z,95347.44
2018-10-19T03:31:05.355Z,95350.66
2018-10-19T03:33:30.806Z,95349.91
2018-10-19T03:35:56.280Z,95351.53
2018-10-19T03:38:21.753Z,95349.00
2018-10-19T03:40:47.257Z,95355.15
2018-10-19T03:43:12.729Z,95354.55
2018-10-19T03:45:38.203Z,95348.34
2018-10-19T03:48:03.700Z,95345.25
2018-10-19T03:50:29.197Z,95349.59
2018-10-19T03:52:54.719Z,95346.28
2018-10-19T03:55:20.137Z,95352.39
2018-10-19T03:57:45.628Z,95357.73
2018-10-19T04:00:11.127Z,95357.55
2018-10-19T04:02:36.622Z,95360.54
2018-10-19T04:05:02.147Z,95367.97
2018-10-19T04:07:27.573Z,95356.98
2018-10-19T04:09:53.066Z,95361.38
2018-10-19T04:12:18.563Z,95355.73
2018-10-19T04:14:44.056Z,95356.55
2018-10-19T04:17:09.636Z,95360.06
2018-10-19T04:19:35.029Z,95354.02
2018-10-19T04:22:00.538Z,95349.89
2018-10-19T04:24:26.041Z,95347.14
2018-10-19T04:26:51.525Z,95350.14
2018-10-19T04:29:17.059Z,95342.05
2018-10-19T04:31:42.526Z,95342.86
2018-10-19T04:34:07.996Z,95343.08
2018-10-19T04:36:33.481Z,95343.33
2018-10-19T04:38:58.958Z,95340.58
2018-10-19T04:41:24.462Z,95340.80
2018-10-19T04:43:49.925Z,95338.86
2018-10-19T04:46:15.392Z,95339.89
2018-10-19T04:48:40.872Z,95343.27
2018-10-19T04:51:06.614Z,95342.86
2018-10-19T04:53:32.818Z,95348.95
2018-10-19T04:55:58.583Z,95361.88
2018-10-19T04:58:24.086Z,95367.16
2018-10-19T05:00:49.578Z,95373.20
2018-10-19T05:03:15.300Z,95375.95
2018-10-19T05:05:40.749Z,95375.89
2018-10-19T05:08:06.349Z,95385.92
2018-10-19T05:10:31.800Z,95382.58
2018-10-19T05:12:57.314Z,95383.58
2018-10-19T05:15:22.853Z,95385.17
2018-10-19T05:17:48.342Z,95387.10
2018-10-19T05:20:13.911Z,95389.07
2018-10-19T05:22:39.327Z,95392.59
2018-10-19T05:25:04.801Z,95384.95
2018-10-19T05:27:30.307Z,95389.07
2018-10-19T05:29:55.808Z,95388.48
2018-10-19T05:32:21.297Z,95390.26
2018-10-19T05:34:46.812Z,95387.51
2018-10-19T05:37:12.303Z,95391.63
2018-10-19T05:39:37.771Z,95393.19
2018-10-19T05:42:03.267Z,95390.44
2018-10-19T05:44:28.743Z,95396.16
2018-10-19T05:46:54.261Z,95401.81
2018-10-19T05:49:19.715Z,95404.96
2018-10-19T05:51:45.215Z,95405.55
2018-10-19T05:54:10.694Z,95403.18
2018-10-19T05:56:36.195Z,95401.66
2018-10-19T05:59:01.780Z,95398.84
2018-10-19T06:01:27.207Z,95414.08
2018-10-19T06:03:52.719Z,95416.83
2018-10-19T06:06:18.250Z,95422.73
2018-10-19T06:08:43.717Z,95421.30
2018-10-19T06:11:09.263Z,95418.70
2018-10-19T06:13:34.786Z,95416.14
2018-10-19T06:16:00.210Z,95422.60
2018-10-19T06:18:25.700Z,95418.64
2018-10-19T06:20:51.224Z,95428.25
2018-10-19T06:23:16.765Z,95427.06
2018-10-19T06:25:42.180Z,95429.41
2018-10-19T06:28:07.681Z,95432.56
2018-10-19T06:30:33.158Z,95431.56
2018-10-19T06:32:58.641Z,95437.46
2018-10-19T06:35:24.118Z,95436.09
2018-10-19T06:37:49.648Z,95436.75
2018-10-19T06:40:15.182Z,95427.84
2018-10-19T06:42:40.682Z,95432.31
2018-10-19T06:45:06.159Z,95433.13
2018-10-19T06:47:31.661Z,95428.75
2018-10-19T06:49:57.200Z,95428.19
2018-10-19T06:52:22.687Z,95429.63
2018-10-19T06:54:48.233Z,95435.13
2018-10-19T06:57:13.724Z,95438.43
2018-10-19T06:59:39.232Z,95442.55
2018-10-19T07:02:04.794Z,95443.92
2018-10-19T07:04:30.214Z,95443.92
2018-10-19T07:06:55.721Z,95442.95
2018-10-19T07:09:21.233Z,95441.02
2018-10-19T07:11:46.968Z,95440.05
2018-10-19T07:14:12.453Z,95439.55
2018-10-19T07:16:37.906Z,95435.66
2018-10-19T07:19:03.434Z,95429.59
2018-10-19T07:21:28.873Z,95429.81
2018-10-19T07:23:54.364Z,95427.41
2018-10-19T07:26:19.872Z,95428.63
2018-10-19T07:28:45.346Z,95428.16
2018-10-19T07:31:10.833Z,95423.41
2018-10-19T07:33:36.327Z,95424.78
2018-10-19T07:36:02.046Z,95422.41
2018-10-19T07:38:27.492Z,95421.63
2018-10-19T07:40:52.986Z,95417.11
2018-10-19T07:43:18.496Z,95412.73
2018-10-19T07:45:43.973Z,95412.73
2018-10-19T07:48:09.722Z,95420.42
2018-10-19T07:50:35.004Z,95417.67
2018-10-19T07:53:00.560Z,95414.52
2018-10-19T07:55:26.019Z,95404.50
2018-10-19T07:57:51.608Z,95406.68
2018-10-19T08:00:17.427Z,95402.55
2018-10-19T08:02:42.884Z,95407.09
2018-10-19T08:05:08.436Z,95409.83
2018-10-19T08:07:33.968Z,95408.30
2018-10-19T08:09:59.451Z,95413.95
2018-10-19T08:12:24.950Z,95408.67
2018-10-19T08:14:50.432Z,95402.80
2018-10-19T08:17:16.022Z,95391.56
2018-10-19T08:19:41.415Z,95397.47
2018-10-19T08:22:06.892Z,95397.47
2018-10-19T08:24:32.364Z,95391.16
2018-10-19T08:26:57.844Z,95398.44
2018-10-19T08:29:23.329Z,95399.06
2018-10-19T08:31:48.940Z,95398.69
2018-10-19T08:34:14.439Z,95400.06
2018-10-19T08:36:40.338Z,95396.91
2018-10-19T08:39:05.824Z,95400.84
2018-10-19T08:41:31.372Z,95403.77
2018-10-19T08:43:56.849Z,95400.22
2018-10-19T08:46:22.363Z,95401.03
2018-10-19T08:48:47.868Z,95398.69
2018-10-19T08:51:13.511Z,95399.25
2018-10-19T08:53:38.885Z,95399.06
2018-10-19T08:56:04.331Z,95390.44
2018-10-19T08:58:29.886Z,95402.06
2018-10-19T09:00:55.384Z,95402.47
2018-10-19T09:03:20.913Z,95398.50
2018-10-19T09:05:46.365Z,95395.53
2018-10-19T09:08:11.844Z,95391.41
2018-10-19T09:10:37.312Z,95397.47
2018-10-19T09:13:02.848Z,95393.69
2018-10-19T09:15:28.335Z,95396.09
2018-10-19T09:17:53.812Z,95391.97
2018-10-19T09:20:19.312Z,95388.48
2018-10-19T09:22:44.841Z,95387.29
2018-10-19T09:25:10.344Z,95391.01
2018-10-19T09:27:35.850Z,95381.95
2018-10-19T09:30:01.387Z,95383.89
2018-10-19T09:32:26.885Z,95383.48
2018-10-19T09:34:52.392Z,95376.05
2018-10-19T09:37:17.889Z,95377.02
2018-10-19T09:39:43.388Z,95374.68
2018-10-19T09:42:08.968Z,95373.87
2018-10-19T09:44:34.392Z,95370.34
2018-10-19T09:46:59.923Z,95371.12
2018-10-19T09:49:25.397Z,95360.53
2018-10-19T09:51:50.882Z,95360.78
2018-10-19T09:54:16.344Z,95359.00
2018-10-19T09:56:41.845Z,95354.13
2018-10-19T09:59:07.426Z,95352.54
2018-10-19T10:01:32.875Z,95353.16
2018-10-19T10:03:58.379Z,95349.86
2018-10-19T10:06:23.880Z,95350.02
2018-10-19T10:08:49.389Z,95345.89
2018-10-19T10:11:14.893Z,95340.23
2018-10-19T10:13:40.393Z,95334.74
2018-10-19T10:16:05.916Z,95338.30
2018-10-19T10:18:31.417Z,95329.47
2018-10-19T10:20:56.916Z,95327.94
2018-10-19T10:23:22.391Z,95334.80
2018-10-19T10:25:47.906Z,95324.62
2018-10-19T10:28:13.542Z,95323.81
2018-10-19T10:30:38.940Z,95319.50
2018-10-19T10:33:04.431Z,95316.59
2018-10-19T10:35:29.927Z,95312.47
2018-10-19T10:37:55.427Z,95314.66
2018-10-19T10:40:20.903Z,95313.69
2018-10-19T10:42:46.383Z,95307.20
2018-10-19T10:45:11.894Z,95302.70
2018-10-19T10:47:37.397Z,95299.95
2018-10-19T10:50:02.923Z,95296.39
2018-10-19T10:52:28.399Z,95293.08
2018-10-19T10:54:53.943Z,95289.12
2018-10-19T10:57:19.377Z,95293.64
2018-10-19T10:59:44.900Z,95290.34
2018-10-19T11:02:10.374Z,95290.71
2018-10-19T11:04:35.849Z,95290.15
2018-10-19T11:07:01.379Z,95282.47
2018-10-19T11:09:26.864Z,95279.56
2018-10-19T11:11:52.341Z,95282.87
2018-10-19T11:14:17.855Z,95270.70
2018-10-19T11:16:43.353Z,95269.95
2018-10-19T11:19:08.979Z,95267.20
2018-10-19T11:21:34.372Z,95274.63
2018-10-19T11:23:59.921Z,95267.95
2018-10-19T11:26:25.378Z,95269.08
2018-10-19T11:28:50.881Z,95274.58
2018-10-19T11:31:16.485Z,95263.98
2018-10-19T11:33:41.870Z,95261.64
2018-10-19T11:36:07.368Z,95266.73
2018-10-19T11:38:32.897Z,95262.45
2018-10-19T11:40:58.388Z,95260.67
2018-10-19T11:43:23.874Z,95255.99
2018-10-19T11:45:49.396Z,95251.27
2018-10-19T11:48:14.901Z,95254.99
2018-10-19T11:50:40.378Z,95249.34
2018-10-19T11:53:05.868Z,95246.02
2018-10-19T11:55:31.372Z,95245.22
2018-10-19T11:57:56.862Z,95234.79
2018-10-19T12:00:22.363Z,95230.67
2018-10-19T12:02:47.861Z,95228.33
2018-10-19T12:05:13.375Z,95228.57
2018-10-19T12:07:38.882Z,95222.67
2018-10-19T12:10:04.407Z,95222.27
2018-10-19T12:12:29.846Z,95218.30
2018-10-19T12:14:55.371Z,95218.70
2018-10-19T12:17:20.840Z,95216.52
2018-10-19T12:19:46.331Z,95216.72
2018-10-19T12:22:11.833Z,95215.50
2018-10-19T12:24:37.325Z,95216.88
2018-10-19T12:27:02.891Z,95217.47
2018-10-19T12:29:28.340Z,95216.09
2018-10-19T12:31:53.828Z,95207.80
2018-10-19T12:34:19.333Z,95210.59
2018-10-19T12:36:44.825Z,95216.09
2018-10-19T12:39:10.357Z,95220.02
2018-10-19T12:41:35.777Z,95210.20
2018-10-19T12:44:01.269Z,95216.88
2018-10-19T12:46:26.740Z,95214.13
2018-10-19T12:48:52.253Z,95215.50
2018-10-19T12:51:17.721Z,95215.34
2018-10-19T12:53:43.258Z,95215.09
2018-10-19T12:56:08.711Z,95212.75
2018-10-19T12:58:34.221Z,95212.03
2018-10-19T13:00:59.762Z,95215.39
2018-10-19T13:03:25.452Z,95221.45
2018-10-19T13:05:50.734Z,95223.80
2018-10-19T13:08:16.234Z,95222.02
2018-10-19T13:10:41.729Z,95226.48
2018-10-19T13:13:07.316Z,95219.41
2018-10-19T13:15:32.756Z,95224.34
2018-10-19T13:17:58.318Z,95221.59
2018-10-19T13:20:23.743Z,95214.87
2018-10-19T13:22:49.261Z,95218.09
2018-10-19T13:25:14.759Z,95217.58
2018-10-19T13:27:40.256Z,95213.21
2018-10-19T13:30:05.861Z,95218.89
2018-10-19T13:32:31.306Z,95210.97
2018-10-19T13:34:56.795Z,95211.78
2018-10-19T13:37:22.310Z,95210.81
2018-10-19T13:39:47.820Z,95209.03
2018-10-19T13:42:13.306Z,95215.50
2018-10-19T13:44:38.806Z,95222.16
2018-10-19T13:47:04.333Z,95227.24
2018-10-19T13:49:29.831Z,95220.94
2018-10-19T13:51:55.303Z,95224.90
2018-10-19T13:54:20.802Z,95228.45
2018-10-19T13:56:46.358Z,95222.37
2018-10-19T13:59:11.952Z,95228.27
2018-10-19T14:01:37.351Z,95226.33
2018-10-19T14:04:02.892Z,95230.86
2018-10-19T14:06:28.378Z,95231.64
2018-10-19T14:08:53.905Z,95228.52
2018-10-19T14:11:19.417Z,95225.77
2018-10-19T14:13:44.907Z,95227.14
2018-10-19T14:16:10.395Z,95230.11
2018-10-19T14:18:36.012Z,95225.98
2018-10-19T14:21:01.536Z,95226.55
2018-10-19T14:23:26.996Z,95229.54
2018-10-19T14:25:52.506Z,95229.95
2018-10-19T14:28:18.003Z,95226.39
2018-10-19T14:30:43.494Z,95226.60
2018-10-19T14:33:09.061Z,95226.39
2018-10-19T14:35:34.487Z,95231.88
2018-10-19T14:37:59.995Z,95234.02
2018-10-19T14:40:25.478Z,95230.45
2018-10-19T14:42:50.980Z,95237.32
2018-10-19T14:45:16.550Z,95245.91
2018-10-19T14:47:42.034Z,95250.44
2018-10-19T14:50:07.552Z,95248.25
2018-10-19T14:52:33.080Z,95253.19
2018-10-19T14:54:58.609Z,95262.55
2018-10-19T14:57:24.114Z,95259.41
2018-10-19T14:59:49.635Z,95263.12
2018-10-19T15:02:15.257Z,95269.20
2018-10-19T15:04:40.790Z,95274.11
2018-10-19T15:07:06.438Z,95273.33
2018-10-19T15:09:31.982Z,95278.83
2018-10-19T15:11:57.485Z,95281.33
2018-10-19T15:14:22.971Z,95279.39
2018-10-19T15:16:48.531Z,95280.92
2018-10-19T15:19:14.045Z,95286.04
2018-10-19T15:21:39.531Z,95285.64
2018-10-19T15:24:05.038Z,95287.02
2018-10-19T15:26:30.569Z,95284.02
2018-10-19T15:28:56.025Z,95280.86
2018-10-19T15:31:21.495Z,95280.08
2018-10-19T15:33:47.014Z,95280.64
2018-10-19T15:36:12.537Z,95282.02
2018-10-19T15:38:38.010Z,95283.14
2018-10-19T15:41:03.553Z,95282.23
2018-10-19T15:43:29.049Z,95285.80
2018-10-19T15:45:54.550Z,95289.97
2018-10-19T15:48:20.120Z,95295.88
2018-10-19T15:50:45.617Z,95298.52
2018-10-19T15:53:11.164Z,95297.58
2018-10-19T15:55:36.657Z,95297.64
2018-10-19T15:58:02.196Z,95301.95
2018-10-19T16:00:27.866Z,95302.56
2018-10-19T16:02:53.163Z,95304.56
2018-10-19T16:05:18.706Z,95308.53
2018-10-19T16:07:44.386Z,95313.33
2018-10-19T16:10:09.944Z,95315.45
2018-10-19T16:12:35.432Z,95315.61
2018-10-19T16:15:00.951Z,95316.21
2018-10-19T16:17:27.355Z,95318.11
2018-10-19T16:19:52.820Z,95322.03
2018-10-19T16:22:18.621Z,95330.13
2018-10-19T16:24:44.129Z,95322.84
2018-10-19T16:27:10.204Z,95327.72
2018-10-19T16:29:35.675Z,95327.53
2018-10-19T16:32:01.227Z,95328.97
2018-10-19T16:34:26.750Z,95331.37
2018-10-19T16:36:52.278Z,95338.23
2018-10-19T16:39:17.810Z,95335.33
2018-10-19T16:41:43.421Z,95341.70
2018-10-19T16:44:08.902Z,95343.29
2018-10-19T16:46:34.394Z,95343.91
2018-10-19T16:48:59.892Z,95350.00
2018-10-19T16:51:25.398Z,95356.88
2018-10-19T16:53:50.897Z,95363.80
2018-10-19T16:56:16.460Z,95360.52
2018-10-19T16:58:41.952Z,95374.67
2018-10-19T17:01:07.434Z,95376.45
2018-10-19T17:03:33.001Z,95375.08
2018-10-19T17:05:58.679Z,95376.29
2018-10-19T17:08:24.156Z,95378.70
2018-10-19T17:10:49.672Z,95382.47
2018-10-19T17:13:15.184Z,95386.53
2018-10-19T17:15:40.693Z,95386.94
2018-10-19T17:18:06.244Z,95391.94
2018-10-19T17:20:31.710Z,95389.80
2018-10-19T17:22:57.214Z,95396.89
2018-10-19T17:25:22.903Z,95396.11
2018-10-19T17:27:48.203Z,95400.70
2018-10-19T17:30:13.798Z,95396.33
2018-10-19T17:32:39.304Z,95397.95
2018-10-19T17:35:04.849Z,95395.52
2018-10-19T17:37:30.333Z,95400.86
2018-10-19T17:39:55.786Z,95406.58
2018-10-19T17:42:21.283Z,95400.30
2018-10-19T17:44:46.784Z,95403.11
2018-10-19T17:47:12.366Z,95412.73
2018-10-19T17:49:37.839Z,95407.04
2018-10-19T17:52:03.376Z,95410.77
2018-10-19T17:54:28.967Z,95405.27
2018-10-19T17:56:54.412Z,95404.30
2018-10-19T17:59:19.888Z,95413.91
2018-10-19T18:01:45.405Z,95416.16
2018-10-19T18:04:10.945Z,95416.00
2018-10-19T18:06:36.449Z,95416.51
2018-10-19T18:09:01.998Z,95418.91
2018-10-19T18:11:27.452Z,95420.69
2018-10-19T18:13:52.943Z,95424.25
2018-10-19T18:16:18.438Z,95424.91
2018-10-19T18:18:43.931Z,95430.97
2018-10-19T18:21:09.556Z,95432.50
2018-10-19T18:23:35.260Z,95442.84
2018-10-19T18:26:01.382Z,95440.22
2018-10-19T18:28:26.797Z,95444.75
2018-10-19T18:30:52.377Z,95441.34
2018-10-19T18:33:18.223Z,95440.78
2018-10-19T18:35:43.743Z,95441.28
2018-10-19T18:38:09.367Z,95437.16
2018-10-19T18:40:35.416Z,95445.41
2018-10-19T18:43:01.935Z,95443.41
2018-10-19T18:45:27.523Z,95446.00
2018-10-19T18:47:53.118Z,95453.03
2018-10-19T18:50:18.636Z,95448.09
2018-10-19T18:52:44.007Z,95447.07
2018-10-19T18:55:09.586Z,95455.09
2018-10-19T18:57:35.025Z,95452.10
2018-10-19T19:00:00.587Z,95455.81
2018-10-19T19:02:26.075Z,95451.48
2018-10-19T19:04:51.573Z,95452.85
2018-10-19T19:07:17.063Z,95462.06
2018-10-19T19:09:42.607Z,95462.22
2018-10-19T19:12:08.116Z,95464.59
2018-10-19T19:14:33.614Z,95463.59
2018-10-19T19:16:59.109Z,95458.69
2018-10-19T19:19:24.586Z,95457.31
2018-10-19T19:21:50.075Z,95461.38
2018-10-19T19:24:15.562Z,95465.16
2018-10-19T19:26:41.050Z,95464.53
2018-10-19T19:29:06.701Z,95465.09
2018-10-19T19:31:32.061Z,95471.97
2018-10-19T19:33:57.570Z,95465.25
2018-10-19T19:36:23.046Z,95465.66
2018-10-19T19:38:48.580Z,95467.28
2018-10-19T19:41:14.196Z,95468.41
2018-10-19T19:43:39.614Z,95471.34
2018-10-19T19:46:05.113Z,95474.66
2018-10-19T19:48:30.607Z,95472.31
2018-10-19T19:50:56.114Z,95479.97
2018-10-19T19:53:21.609Z,95489.58
2018-10-19T19:55:47.100Z,95474.25
2018-10-19T19:58:12.663Z,95477.81
2018-10-19T20:00:38.079Z,95475.47
2018-10-19T20:03:03.571Z,95482.72
2018-10-19T20:05:29.076Z,95483.30
2018-10-19T20:07:54.622Z,95478.38
2018-10-19T20:10:20.058Z,95480.16
2018-10-19T20:12:45.552Z,95478.22
2018-10-19T20:15:11.057Z,95474.81
2018-10-19T20:17:36.549Z,95478.53
2018-10-19T20:20:02.171Z,95485.80
2018-10-19T20:22:27.542Z,95476.78
2018-10-19T20:24:53.083Z,95473.03
2018-10-19T20:27:18.579Z,95480.30
2018-10-19T20:29:44.073Z,95473.63
2018-10-19T20:32:09.586Z,95472.66
2018-10-19T20:34:35.057Z,95474.81
2018-10-19T20:37:00.548Z,95470.34
2018-10-19T20:39:26.037Z,95473.56
2018-10-19T20:41:51.544Z,95475.34
2018-10-19T20:44:17.190Z,95476.63
2018-10-19T20:46:42.553Z,95479.52
2018-10-19T20:49:08.042Z,95481.47
2018-10-19T20:51:33.558Z,95476.31
2018-10-19T20:53:59.039Z,95476.72
2018-10-19T20:56:24.535Z,95471.41
2018-10-19T20:58:50.026Z,95469.62
2018-10-19T21:01:15.516Z,95471.16
2018-10-19T21:03:41.006Z,95477.47
2018-10-19T21:06:06.498Z,95474.47
2018-10-19T21:08:31.982Z,95470.94
2018-10-19T21:10:57.545Z,95475.78
2018-10-19T21:13:23.003Z,95471.84
2018-10-19T21:15:48.446Z,95468.84
2018-10-19T21:18:13.981Z,95466.50
2018-10-19T21:20:39.476Z,95470.97
2018-10-19T21:23:04.994Z,95471.53
2018-10-19T21:25:30.472Z,95469.38
2018-10-19T21:27:55.989Z,95479.56
2018-10-19T21:30:21.489Z,95476.00
2018-10-19T21:32:46.977Z,95473.44
2018-10-19T21:35:12.517Z,95475.59
2018-10-19T21:37:38.267Z,95476.97
2018-10-19T21:40:03.804Z,95479.50
2018-10-19T21:42:29.290Z,95469.88
2018-10-19T21:44:54.782Z,95473.37
2018-10-19T21:47:20.282Z,95472.97
2018-10-19T21:49:45.782Z,95474.75
2018-10-19T21:52:11.278Z,95477.66
2018-10-19T21:54:36.769Z,95466.81
2018-10-19T21:57:02.310Z,95468.78
2018-10-19T21:59:27.827Z,95467.41
2018-10-19T22:01:53.321Z,95466.03
2018-10-19T22:04:18.821Z,95470.31
2018-10-19T22:06:44.323Z,95475.00
2018-10-19T22:09:09.815Z,95471.47
2018-10-19T22:11:35.323Z,95469.84
2018-10-19T22:14:00.815Z,95476.56
2018-10-19T22:16:26.310Z,95474.94
2018-10-19T22:18:51.800Z,95470.81
2018-10-19T22:21:17.298Z,95475.53
2018-10-19T22:23:42.790Z,95473.19
2018-10-19T22:26:08.364Z,95482.80
2018-10-19T22:28:33.794Z,95483.92
2018-10-19T22:30:59.290Z,95486.11
2018-10-19T22:33:24.787Z,95489.42
2018-10-19T22:35:50.280Z,95487.23
2018-10-19T22:38:15.776Z,95480.96
2018-10-19T22:40:41.276Z,95481.52
2018-10-19T22:43:06.826Z,95478.77
2018-10-19T22:45:32.263Z,95485.08
2018-10-19T22:47:57.757Z,95482.09
2018-10-19T22:50:23.249Z,95480.15
2018-10-19T22:52:48.750Z,95472.66
2018-10-19T22:55:14.343Z,95477.00
2018-10-19T22:57:39.754Z,95472.66
2018-10-19T23:00:05.251Z,95477.56
2018-10-19T23:02:30.761Z,95475.40
2018-10-19T23:04:56.282Z,95473.06
2018-10-19T23:07:21.742Z,95470.88
2018-10-19T23:09:47.399Z,95465.13
2018-10-19T23:12:12.763Z,95466.13
2018-10-19T23:14:38.262Z,95466.13
2018-10-19T23:17:03.792Z,95468.06
2018-10-19T23:19:29.259Z,95468.47
2018-10-19T23:21:54.821Z,95466.28
2018-10-19T23:24:20.319Z,95473.56
2018-10-19T23:26:45.810Z,95486.48
2018-10-19T23:29:11.539Z,95480.17
2018-10-19T23:31:36.978Z,95485.67
2018-10-19T23:34:02.358Z,95477.05
2018-10-19T23:36:27.877Z,95476.46
2018-10-19T23:38:53.377Z,95481.17
2018-10-19T23:41:18.878Z,95470.19
2018-10-19T23:43:44.421Z,95476.65
2018-10-19T23:46:09.873Z,95479.80
2018-10-19T23:48:35.409Z,95477.21
2018-10-19T23:51:00.900Z,95474.46
2018-10-19T23:53:26.405Z,95474.24
2018-10-19T23:55:51.897Z,95472.87
2018-10-19T23:58:17.387Z,95472.47
